Time;durP1;ratioP1;P1;durP2;ratioP2;P2;SDS_P1;SDS_P2;PMS_P1;PMS_P2;Temp;Humidity;BMP_temperature;BMP_pressure;BME280_temperature;BME280_humidity;BME280_pressure;Samples;Min_cycle;Max_cycle;Signal;HPM_P1;HPM_P2
2023/01/31 00:04:44;;;;;;;5.28;1.33;;;;;;;18.57;33.73;102479.50;16125925;19;129599;-55
2023/01/31 00:10:06;;;;;;;4.90;1.20;;;;;;;18.54;33.51;102491.00;16120715;19;129554;-53
2023/01/31 00:15:28;;;;;;;3.30;0.90;;;;;;;18.50;33.78;102473.06;16117024;19;129569;-57
2023/01/31 00:20:50;;;;;;;5.38;1.73;;;;;;;18.47;33.58;102479.88;16117020;19;129301;-52
2023/01/31 00:26:17;;;;;;;4.30;0.98;;;;;;;18.44;33.48;102475.63;16114451;19;130350;-54
2023/01/31 00:31:40;;;;;;;3.38;0.98;;;;;;;18.41;33.96;102476.03;16115703;19;131764;-54
2023/01/31 00:37:01;;;;;;;3.42;0.80;;;;;;;18.37;33.65;102491.31;16114526;19;129453;-53
2023/01/31 00:42:23;;;;;;;2.20;1.10;;;;;;;18.35;33.75;102471.25;16114948;19;129570;-56
2023/01/31 00:47:45;;;;;;;2.88;0.93;;;;;;;18.33;33.47;102476.19;16115521;19;130526;-52
2023/01/31 00:53:07;;;;;;;2.53;1.02;;;;;;;18.29;33.48;102466.56;16129581;19;129658;-52
2023/01/31 00:58:29;;;;;;;1.65;0.80;;;;;;;18.27;33.65;102468.66;16131434;19;130308;-50
2023/01/31 01:03:51;;;;;;;2.70;0.90;;;;;;;18.24;33.93;102461.63;16130013;19;130723;-53
2023/01/31 01:09:13;;;;;;;3.05;0.90;;;;;;;18.22;33.68;102454.56;16127610;19;132496;-52
2023/01/31 01:14:34;;;;;;;3.08;1.02;;;;;;;18.18;33.91;102448.59;16128723;19;129671;-55
2023/01/31 01:19:57;;;;;;;2.70;0.98;;;;;;;18.14;33.98;102445.38;16128004;19;129362;-51
2023/01/31 01:25:18;;;;;;;2.53;1.10;;;;;;;18.13;33.93;102457.53;16128753;19;130759;-51
2023/01/31 01:30:40;;;;;;;2.67;1.00;;;;;;;18.11;33.50;102448.56;16130265;19;131937;-55
2023/01/31 01:36:04;;;;;;;3.13;1.10;;;;;;;18.07;33.76;102447.28;16128907;19;130531;-54
2023/01/31 01:41:26;;;;;;;3.80;1.10;;;;;;;18.06;33.84;102445.56;16127576;19;129821;-54
2023/01/31 01:46:49;;;;;;;2.65;1.08;;;;;;;18.03;33.95;102436.84;16128484;19;129179;-50
2023/01/31 01:52:13;;;;;;;3.63;1.08;;;;;;;18.02;33.61;102430.41;16128845;19;130178;-55
2023/01/31 01:57:40;;;;;;;2.95;0.80;;;;;;;18.00;33.47;102451.91;16124591;19;129222;-51
2023/01/31 02:03:06;;;;;;;1.98;0.73;;;;;;;17.97;33.94;102435.75;16125533;19;130441;-56
2023/01/31 02:08:31;;;;;;;2.33;0.90;;;;;;;17.95;33.80;102435.09;16124305;19;129871;-52
2023/01/31 02:14:08;;;;;;;2.55;1.25;;;;;;;17.93;33.70;102428.88;16129714;19;129836;-55
2023/01/31 02:20:05;;;;;;;1.85;0.73;;;;;;;17.91;33.95;102419.94;16126658;19;129845;-53
2023/01/31 02:26:15;;;;;;;2.67;0.80;;;;;;;17.88;33.59;102423.97;16116685;19;131543;-51
2023/01/31 02:31:40;;;;;;;1.38;0.63;;;;;;;17.83;33.55;102419.06;16111080;19;129563;-55
2023/01/31 02:37:14;;;;;;;2.70;0.88;;;;;;;17.82;33.58;102422.88;16111565;19;130201;-53
2023/01/31 02:43:04;;;;;;;3.63;0.98;;;;;;;17.80;33.94;102422.22;16112779;19;129716;-52
2023/01/31 02:48:51;;;;;;;1.15;0.80;;;;;;;17.79;33.94;102416.88;16112088;19;130544;-53
2023/01/31 02:56:13;;;;;;;2.97;1.00;;;;;;;17.77;33.64;102421.78;16110486;19;130583;-53
2023/01/31 03:00:09;;;;;;;2.45;0.70;;;;;;;17.73;33.99;102421.31;16115534;19;129782;-54
2023/01/31 03:05:31;;;;;;;4.45;1.15;;;;;;;17.73;33.80;102423.25;16117157;19;132884;-54
2023/01/31 03:10:52;;;;;;;2.45;0.93;;;;;;;17.71;33.62;102419.81;16119804;19;130593;-51
2023/01/31 03:22:15;;;;;;;2.08;0.70;;;;;;;17.67;33.99;102411.91;16119293;19;129386;-53
2023/01/31 03:27:39;;;;;;;1.95;0.70;;;;;;;17.65;33.96;102413.19;16118930;19;129920;-52
2023/01/31 03:33:09;;;;;;;1.58;0.77;;;;;;;17.63;34.00;102405.09;16116553;19;130759;-53
2023/01/31 03:38:36;;;;;;;2.45;1.05;;;;;;;17.62;33.57;102410.81;16115233;19;131028;-54
2023/01/31 03:44:04;;;;;;;2.05;0.80;;;;;;;17.62;33.79;102410.81;16115181;19;129972;-50
2023/01/31 03:49:27;;;;;;;3.47;1.15;;;;;;;17.60;34.09;102413.78;16119373;19;130515;-52
2023/01/31 03:55:06;;;;;;;1.35;0.60;;;;;;;17.58;33.63;102396.53;16117984;19;131626;-50
2023/01/31 04:00:29;;;;;;;1.77;0.90;;;;;;;17.54;33.61;102398.84;16116773;19;129988;-54
2023/01/31 04:05:51;;;;;;;1.45;0.60;;;;;;;17.54;33.68;102406.25;16116191;19;129487;-56
2023/01/31 04:11:13;;;;;;;2.88;0.82;;;;;;;17.52;33.98;102400.94;16117126;19;129691;-53
2023/01/31 04:16:35;;;;;;;2.38;0.63;;;;;;;17.50;33.65;102405.81;16115863;19;130149;-51
2023/01/31 04:21:57;;;;;;;2.38;0.82;;;;;;;17.49;33.91;102412.41;16116158;19;129641;-51
2023/01/31 04:27:19;;;;;;;1.30;0.70;;;;;;;17.47;33.74;102406.25;16132005;19;129611;-50
2023/01/31 04:32:41;;;;;;;2.65;0.98;;;;;;;17.46;33.79;102396.22;16132523;19;129531;-51
2023/01/31 04:38:03;;;;;;;1.17;0.80;;;;;;;17.45;34.02;102397.28;16130381;19;129468;-52
2023/01/31 04:43:25;;;;;;;1.35;0.73;;;;;;;17.43;33.56;102402.16;16132019;19;130701;-50
2023/01/31 04:48:46;;;;;;;2.40;1.00;;;;;;;17.42;33.99;102400.44;16131624;19;130577;-54
2023/01/31 04:54:09;;;;;;;1.98;0.80;;;;;;;17.39;34.00;102398.94;16129272;19;129822;-53
2023/01/31 04:59:31;;;;;;;2.35;0.98;;;;;;;17.39;33.85;102387.00;16124359;19;131459;-52
2023/01/31 05:04:52;;;;;;;2.58;0.68;;;;;;;17.38;34.08;102377.00;16132296;19;131294;-54
2023/01/31 05:10:15;;;;;;;2.75;1.00;;;;;;;17.37;33.63;102369.75;16131486;19;130632;-53
2023/01/31 05:15:37;;;;;;;1.65;0.73;;;;;;;17.35;33.69;102369.13;16131368;19;130457;-54
2023/01/31 05:20:58;;;;;;;2.65;0.80;;;;;;;17.34;33.66;102359.13;16129905;19;131266;-52
2023/01/31 05:26:20;;;;;;;2.38;1.00;;;;;;;17.31;33.98;102332.69;16129778;19;130560;-54
2023/01/31 05:31:43;;;;;;;3.65;0.98;;;;;;;17.31;33.98;102323.56;16126752;19;130463;-49
2023/01/31 05:37:05;;;;;;;2.20;0.95;;;;;;;17.29;33.90;102325.66;16124583;19;133097;-55
2023/01/31 05:42:27;;;;;;;4.18;0.82;;;;;;;17.28;33.98;102312.88;16127330;19;131424;-53
2023/01/31 05:47:49;;;;;;;2.17;0.95;;;;;;;17.26;33.90;102324.16;16130674;19;129681;-52
2023/01/31 05:53:11;;;;;;;3.55;1.13;;;;;;;17.24;34.00;102320.75;16124369;19;131303;-53
2023/01/31 05:58:33;;;;;;;1.85;0.73;;;;;;;17.24;34.05;102326.28;16124663;19;129040;-50
2023/01/31 06:03:55;;;;;;;2.50;0.80;;;;;;;17.22;34.05;102317.31;16124880;19;129476;-51
2023/01/31 06:09:17;;;;;;;2.15;0.75;;;;;;;17.21;33.77;102322.00;16123914;19;129531;-49
2023/01/31 06:14:39;;;;;;;2.63;0.90;;;;;;;17.20;33.87;102314.78;16126158;19;129569;-54
2023/01/31 06:20:02;;;;;;;3.10;1.00;;;;;;;17.20;33.65;102322.19;16123937;19;129723;-49
2023/01/31 06:25:24;;;;;;;1.23;0.70;;;;;;;17.17;33.74;102304.09;16119371;19;130598;-49
2023/01/31 06:30:46;;;;;;;6.20;1.10;;;;;;;17.17;33.93;102309.63;16124642;19;130218;-53
2023/01/31 06:36:08;;;;;;;6.55;1.70;;;;;;;17.23;33.85;102308.81;16124049;19;131478;-51
2023/01/31 06:41:30;;;;;;;6.22;1.40;;;;;;;17.29;33.88;102296.09;16121447;19;130635;-50
2023/01/31 06:46:52;;;;;;;6.95;1.50;;;;;;;17.30;33.97;102308.00;16121422;19;129782;-61
2023/01/31 06:52:14;;;;;;;6.20;1.60;;;;;;;17.29;33.70;102317.38;16122166;19;130570;-61
2023/01/31 06:57:36;;;;;;;6.10;1.75;;;;;;;17.28;33.75;102308.22;16118668;19;131061;-60
2023/01/31 07:02:58;;;;;;;2.97;1.17;;;;;;;17.28;33.99;102301.81;16120804;19;129544;-64
2023/01/31 07:08:20;;;;;;;4.40;1.35;;;;;;;17.27;33.93;102308.41;16120708;19;131043;-56
2023/01/31 07:13:44;;;;;;;4.57;1.30;;;;;;;17.24;33.98;102313.28;16121402;19;129408;-64
2023/01/31 07:19:06;;;;;;;3.03;1.05;;;;;;;17.24;33.64;102315.22;16120890;19;130618;-65
2023/01/31 07:24:28;;;;;;;4.25;1.35;;;;;;;17.24;33.94;102309.69;16119238;19;130992;-59
2023/01/31 07:29:50;;;;;;;3.25;0.90;;;;;;;17.22;33.53;102306.25;16117794;19;129856;-50
2023/01/31 07:35:12;;;;;;;4.60;1.55;;;;;;;17.20;33.84;102314.78;16119094;19;129712;-49
2023/01/31 07:40:34;;;;;;;2.90;1.00;;;;;;;17.19;33.81;102312.19;16122649;19;129421;-47
2023/01/31 07:45:56;;;;;;;6.55;1.20;;;;;;;17.18;33.82;102316.88;16125137;19;130312;-47
2023/01/31 07:51:18;;;;;;;4.40;1.40;;;;;;;17.17;33.87;102308.78;16117016;19;129807;-49
2023/01/31 07:56:40;;;;;;;4.65;1.27;;;;;;;17.16;33.61;102307.94;16119767;19;129584;-48
2023/01/31 08:07:42;;;;;;;6.22;1.48;;;;;;;17.11;33.68;102285.53;16118199;19;129434;-52
2023/01/31 08:13:05;;;;;;;5.65;1.20;;;;;;;17.10;33.60;102283.88;16119434;19;129909;-48
2023/01/31 08:18:27;;;;;;;8.63;1.15;;;;;;;17.09;33.94;102265.56;16119511;19;130851;-51
2023/01/31 08:23:49;;;;;;;4.15;1.08;;;;;;;17.06;33.76;102268.72;16119762;19;129431;-48
2023/01/31 08:29:10;;;;;;;4.60;1.20;;;;;;;17.05;33.76;102255.97;16117259;19;130254;-50
2023/01/31 08:34:32;;;;;;;4.70;1.10;;;;;;;17.03;33.93;102249.78;16113788;19;130871;-47
2023/01/31 08:39:54;;;;;;;6.47;1.50;;;;;;;17.03;33.68;102269.13;16115903;19;130161;-51
2023/01/31 08:45:16;;;;;;;3.60;1.20;;;;;;;17.01;33.65;102271.22;16116251;19;129577;-55
2023/01/31 08:50:37;;;;;;;5.00;1.10;;;;;;;16.98;34.00;102255.06;16115499;19;129242;-55
2023/01/31 08:56:04;;;;;;;4.07;1.13;;;;;;;16.98;33.84;102244.00;16116724;19;131104;-54
2023/01/31 09:01:28;;;;;;;4.95;1.27;;;;;;;16.97;33.84;102239.53;16115789;19;129423;-56
2023/01/31 09:06:50;;;;;;;2.05;1.05;;;;;;;16.97;33.65;102231.25;16113748;19;129579;-55
2023/01/31 09:12:12;;;;;;;11.20;1.80;;;;;;;16.98;33.76;102217.22;16128025;19;129436;-51
2023/01/31 09:17:34;;;;;;;4.20;1.20;;;;;;;16.97;33.63;102231.25;16130953;19;130318;-49
2023/01/31 09:22:56;;;;;;;5.30;1.25;;;;;;;16.96;33.88;102224.84;16127320;19;131096;-47
2023/01/31 09:28:18;;;;;;;5.07;1.42;;;;;;;16.96;33.81;102218.47;16126760;19;131223;-49
2023/01/31 09:33:40;;;;;;;5.93;1.42;;;;;;;16.93;33.69;102214.19;16127132;19;129463;-48
2023/01/31 09:39:02;;;;;;;3.88;1.40;;;;;;;16.92;33.49;102234.63;16127855;19;129483;-51
2023/01/31 09:44:27;;;;;;;4.90;1.40;;;;;;;16.89;33.88;102208.22;16124965;19;131653;-49
2023/01/31 09:50:02;;;;;;;3.65;1.25;;;;;;;16.93;33.66;102204.00;16127647;19;129908;-48
2023/01/31 09:55:37;;;;;;;5.53;1.30;;;;;;;17.11;33.73;102194.28;16125281;19;129398;-47
2023/01/31 10:01:15;;;;;;;5.43;1.17;;;;;;;17.33;33.20;102219.94;16125818;19;129225;-48
2023/01/31 10:06:45;;;;;;;3.08;1.20;;;;;;;17.52;33.17;102212.78;16125011;19;129625;-51
2023/01/31 10:12:20;;;;;;;3.35;1.45;;;;;;;17.69;32.90;102227.13;16127214;19;131724;-51
2023/01/31 10:17:49;;;;;;;5.37;1.30;;;;;;;17.78;32.83;102233.34;16126601;19;129457;-48
2023/01/31 10:23:17;;;;;;;3.00;1.23;;;;;;;17.81;32.58;102210.78;16119705;19;131483;-47
2023/01/31 10:29:27;;;;;;;6.10;1.20;;;;;;;17.83;32.40;102202.25;16125826;19;130716;-46
2023/01/31 10:34:54;;;;;;;3.50;1.40;;;;;;;17.80;32.78;102198.00;16122408;19;133849;-46
2023/01/31 10:40:24;;;;;;;2.63;1.02;;;;;;;17.76;32.53;102185.63;16121879;19;131293;-52
2023/01/31 10:45:46;;;;;;;3.30;1.38;;;;;;;17.71;32.56;102168.81;16122806;19;130731;-46
2023/01/31 10:51:15;;;;;;;4.63;1.43;;;;;;;17.68;32.83;102161.75;16121615;19;129401;-50
2023/01/31 10:56:43;;;;;;;5.63;1.65;;;;;;;17.65;32.84;102151.13;16120635;19;130469;-47
2023/01/31 11:02:25;;;;;;;4.15;1.30;;;;;;;17.61;32.79;102154.50;16122699;19;131933;-49
2023/01/31 11:07:47;;;;;;;3.70;1.27;;;;;;;17.56;32.67;102146.00;16119813;19;129441;-48
2023/01/31 11:13:17;;;;;;;5.03;1.48;;;;;;;17.54;33.05;102143.38;16121540;19;131916;-48
2023/01/31 11:18:48;;;;;;;10.02;1.77;;;;;;;17.53;32.67;102133.41;16122496;19;129273;-49
2023/01/31 11:24:22;;;;;;;7.32;1.77;;;;;;;17.50;33.08;102142.97;16119122;19;129417;-50
2023/01/31 11:29:49;;;;;;;5.20;1.60;;;;;;;17.47;33.08;102132.34;16120594;19;129503;-48
2023/01/31 11:35:14;;;;;;;7.25;1.95;;;;;;;17.43;33.19;102131.03;16112407;19;130496;-46
2023/01/31 11:40:38;;;;;;;4.45;1.30;;;;;;;17.41;33.10;102122.09;16110932;19;129946;-48
2023/01/31 11:46:02;;;;;;;5.68;1.50;;;;;;;17.39;32.99;102104.84;16116773;19;129954;-47
2023/01/31 11:51:29;;;;;;;4.60;1.35;;;;;;;17.38;33.04;102108.66;16118420;19;129688;-45
2023/01/31 11:56:51;;;;;;;7.15;1.40;;;;;;;17.34;32.93;102099.09;16119366;19;129242;-47
2023/01/31 12:02:26;;;;;;;7.68;1.83;;;;;;;17.34;33.29;102101.88;16117834;19;129563;-46
2023/01/31 12:07:52;;;;;;;6.30;1.80;;;;;;;17.30;33.10;102103.34;16117458;19;128955;-48
2023/01/31 12:13:17;;;;;;;5.40;1.10;;;;;;;17.29;33.59;102101.63;16116880;19;130063;-47
2023/01/31 12:18:58;;;;;;;8.45;1.42;;;;;;;17.29;33.32;102115.44;16119417;19;130227;-48
2023/01/31 12:24:36;;;;;;;8.05;1.70;;;;;;;17.28;33.58;102122.03;16114015;19;130364;-49
2023/01/31 12:30:17;;;;;;;4.03;1.15;;;;;;;17.24;33.46;102108.63;16115749;19;130290;-46
2023/01/31 12:36:04;;;;;;;6.70;1.70;;;;;;;17.22;33.44;102107.13;16114395;19;129981;-45
2023/01/31 12:41:40;;;;;;;3.45;1.20;;;;;;;17.19;33.70;102113.94;16118454;19;129627;-48
2023/01/31 12:47:15;;;;;;;6.78;1.20;;;;;;;17.14;33.47;102105.41;16128487;19;129356;-46
2023/01/31 12:53:04;;;;;;;6.20;1.48;;;;;;;17.13;33.55;102103.69;16132045;19;129514;-48
2023/01/31 12:58:41;;;;;;;6.03;1.20;;;;;;;17.11;33.59;102122.41;16133352;19;129420;-47
2023/01/31 13:04:21;;;;;;;6.13;1.17;;;;;;;17.11;33.84;102116.03;16132365;19;129625;-47
2023/01/31 13:09:48;;;;;;;5.18;1.10;;;;;;;17.06;34.01;102119.44;16133547;19;129534;-46
2023/01/31 13:15:16;;;;;;;5.63;1.00;;;;;;;17.06;33.58;102116.66;16132207;19;129253;-45
2023/01/31 13:20:43;;;;;;;4.70;1.00;;;;;;;17.04;34.01;102107.72;16127157;19;131180;-46
2023/01/31 13:26:20;;;;;;;7.20;1.27;;;;;;;17.03;33.79;102106.00;16128718;19;133056;-47
2023/01/31 13:32:04;;;;;;;3.08;1.00;;;;;;;17.03;34.10;102104.09;16132162;19;130195;-45
2023/01/31 13:37:29;;;;;;;5.03;1.25;;;;;;;17.00;33.84;102098.97;16128800;19;129416;-47
2023/01/31 13:42:54;;;;;;;4.65;0.93;;;;;;;16.99;34.11;102093.66;16129654;19;130209;-45
2023/01/31 13:48:27;;;;;;;4.50;1.23;;;;;;;17.00;34.11;102087.06;16128452;19;130847;-47
2023/01/31 13:53:55;;;;;;;5.82;0.93;;;;;;;16.98;33.99;102097.50;16130237;19;129895;-45
2023/01/31 13:59:22;;;;;;;2.78;0.93;;;;;;;16.96;33.93;102092.16;16121437;19;130281;-49
2023/01/31 14:04:46;;;;;;;3.30;1.00;;;;;;;16.94;33.96;102083.22;16124363;19;129777;-48
2023/01/31 14:10:11;;;;;;;2.92;0.90;;;;;;;16.92;33.89;102080.66;16124926;19;130665;-50
2023/01/31 14:15:50;;;;;;;3.60;1.02;;;;;;;16.92;34.42;102075.13;16126312;19;129641;-46
2023/01/31 14:21:27;;;;;;;2.60;0.75;;;;;;;16.92;33.97;102086.19;16124782;19;129204;-47
2023/01/31 14:26:51;;;;;;;2.63;1.10;;;;;;;16.88;34.26;102095.09;16126952;19;129090;-46
2023/01/31 14:32:30;;;;;;;3.33;0.70;;;;;;;16.89;34.45;102097.66;16125003;19;129654;-48
2023/01/31 14:37:54;;;;;;;3.30;0.90;;;;;;;16.88;34.44;102093.19;16125095;19;129580;-50
2023/01/31 14:43:25;;;;;;;1.55;0.68;;;;;;;16.88;34.11;102098.72;16123182;19;129208;-47
2023/01/31 14:49:01;;;;;;;2.17;0.82;;;;;;;16.86;34.22;102106.34;16125093;19;130805;-46
2023/01/31 14:54:50;;;;;;;3.78;1.00;;;;;;;16.87;34.32;102121.88;16123641;19;129313;-48
2023/01/31 15:00:12;;;;;;;2.38;0.82;;;;;;;16.85;34.25;102121.25;16123748;19;130277;-45
2023/01/31 15:05:34;;;;;;;3.92;0.80;;;;;;;16.85;34.56;102126.78;16121112;19;131217;-47
2023/01/31 15:11:00;;;;;;;2.78;0.70;;;;;;;16.85;34.58;102124.03;16121829;19;130520;-45
2023/01/31 15:16:34;;;;;;;1.90;0.77;;;;;;;16.86;34.43;102136.75;16109790;19;129953;-47
2023/01/31 15:22:04;;;;;;;1.27;0.60;;;;;;;16.84;34.34;102127.84;16111802;19;130177;-47
2023/01/31 15:27:29;;;;;;;3.03;0.60;;;;;;;16.84;34.66;102143.56;16114631;19;129755;-48
2023/01/31 15:33:01;;;;;;;3.30;0.67;;;;;;;16.84;34.52;102141.66;16125054;19;131538;-45
2023/01/31 15:38:32;;;;;;;5.90;0.85;;;;;;;16.83;34.36;102139.06;16122088;19;129618;-46
2023/01/31 15:44:08;;;;;;;3.47;0.60;;;;;;;16.82;34.55;102135.47;16123230;19;129189;-46
2023/01/31 15:49:35;;;;;;;;;;;;;;;16.80;34.37;102143.13;16120579;19;129634;-50
2023/01/31 15:55:05;;;;;;;5.93;0.85;;;;;;;16.81;34.58;102139.28;16122613;19;129299;-51
2023/01/31 16:00:33;;;;;;;4.32;0.68;;;;;;;16.82;34.63;102141.00;16123151;19;129290;-49
2023/01/31 16:05:58;;;;;;;3.45;0.98;;;;;;;16.80;34.77;102136.75;16120561;19;129245;-45
2023/01/31 16:11:20;;;;;;;1.88;0.70;;;;;;;16.79;34.49;102135.88;16119422;19;129335;-48
2023/01/31 16:16:46;;;;;;;2.05;0.55;;;;;;;16.80;34.55;102147.81;16119257;19;129721;-46
2023/01/31 16:22:29;;;;;;;3.75;0.73;;;;;;;16.80;34.49;102134.81;16126717;19;130619;-49
2023/01/31 16:27:54;;;;;;;2.25;0.80;;;;;;;16.77;34.86;102147.16;16132863;19;131420;-48
2023/01/31 16:33:17;;;;;;;2.42;0.70;;;;;;;16.75;35.02;102156.69;16131162;19;131412;-46
2023/01/31 16:38:42;;;;;;;5.63;0.70;;;;;;;16.75;34.84;102162.19;16128743;19;129431;-46
2023/01/31 16:44:05;;;;;;;6.18;0.90;;;;;;;16.74;34.96;102166.88;16129165;19;129565;-46
2023/01/31 16:49:30;;;;;;;6.35;0.73;;;;;;;16.74;34.96;102160.50;16129802;19;130754;-48
2023/01/31 16:54:59;;;;;;;2.83;0.80;;;;;;;16.74;34.78;102171.53;16125928;19;129650;-52
2023/01/31 17:00:23;;;;;;;5.57;0.95;;;;;;;16.74;35.04;102166.03;16117176;19;131124;-50
2023/01/31 17:05:46;;;;;;;10.70;1.10;;;;;;;16.74;34.87;102182.59;16124991;19;129561;-51
2023/01/31 17:11:11;;;;;;;6.18;1.40;;;;;;;16.74;35.01;102180.72;16123363;19;129567;-50
2023/01/31 17:16:44;;;;;;;7.60;1.08;;;;;;;16.74;34.96;102190.88;16129562;19;132318;-49
2023/01/31 17:22:05;;;;;;;11.73;1.20;;;;;;;16.75;34.87;102173.25;16129279;19;130504;-51
2023/01/31 17:27:27;;;;;;;8.75;1.27;;;;;;;16.76;35.12;102163.91;16127383;19;130040;-50
2023/01/31 17:32:49;;;;;;;7.63;1.42;;;;;;;16.75;35.39;102153.91;16127304;19;129678;-48
2023/01/31 17:38:11;;;;;;;7.80;1.00;;;;;;;16.86;35.27;102164.41;16126774;19;129903;-45
2023/01/31 17:43:33;;;;;;;6.78;1.10;;;;;;;17.31;34.94;102160.34;16124777;19;129758;-48
2023/01/31 17:48:55;;;;;;;5.30;1.05;;;;;;;17.87;34.65;102170.31;16124522;19;129858;-50
2023/01/31 17:54:16;;;;;;;6.25;1.00;;;;;;;18.44;33.87;102170.81;16128309;19;129430;-49
2023/01/31 17:59:38;;;;;;;6.00;1.10;;;;;;;18.95;33.53;102154.50;16123967;19;130027;-51
2023/01/31 18:05:00;;;;;;;4.15;1.17;;;;;;;19.28;32.79;102149.88;16124624;19;129947;-50
2023/01/31 18:10:22;;;;;;;2.55;0.82;;;;;;;19.45;32.92;102159.41;16123185;19;132114;-51
2023/01/31 18:15:44;;;;;;;5.72;0.93;;;;;;;19.50;32.63;102151.28;16122790;19;129768;-46
2023/01/31 18:21:11;;;;;;;2.80;1.10;;;;;;;19.48;32.76;102158.09;16118897;19;129767;-52
2023/01/31 18:26:32;;;;;;;3.88;1.02;;;;;;;19.36;32.88;102157.97;16118570;19;130873;-50
2023/01/31 18:31:56;;;;;;;1.42;0.60;;;;;;;19.20;33.22;102150.97;16121268;19;130513;-47
2023/01/31 18:37:19;;;;;;;3.65;0.82;;;;;;;19.03;32.98;102154.22;16120740;19;129699;-46
2023/01/31 18:42:41;;;;;;;2.78;0.77;;;;;;;18.88;33.55;102159.19;16119802;19;131614;-47
2023/01/31 18:48:03;;;;;;;4.13;0.77;;;;;;;18.73;33.83;102151.13;16119334;19;129245;-48
2023/01/31 18:53:25;;;;;;;4.35;0.93;;;;;;;18.64;33.96;102155.22;16120827;19;133537;-50
2023/01/31 18:58:51;;;;;;;4.20;1.33;;;;;;;18.68;34.00;102164.78;16121642;19;129636;-49
2023/01/31 19:04:13;;;;;;;10.15;1.38;;;;;;;18.90;34.27;102170.91;16118751;19;130746;-48
2023/01/31 19:09:35;;;;;;;11.95;1.05;;;;;;;19.29;33.89;102176.56;16119800;19;130122;-47
2023/01/31 19:14:57;;;;;;;9.00;1.15;;;;;;;19.67;34.06;102179.34;16118995;19;130929;-48
2023/01/31 19:20:19;;;;;;;6.97;1.50;;;;;;;20.03;33.56;102179.78;16115203;19;129953;-49
2023/01/31 19:25:41;;;;;;;12.73;1.17;;;;;;;20.28;33.70;102188.13;16120954;19;129514;-50
2023/01/31 19:31:09;;;;;;;4.57;1.10;;;;;;;20.47;33.16;102193.72;16121086;19;130884;-45
2023/01/31 19:36:34;;;;;;;5.75;0.82;;;;;;;20.58;33.38;102190.19;16114810;19;130177;-54
2023/01/31 19:41:56;;;;;;;2.78;0.80;;;;;;;20.72;32.83;102190.06;16118877;19;129474;-55
2023/01/31 19:47:18;;;;;;;5.07;1.00;;;;;;;20.85;32.95;102183.56;16118786;19;131772;-56
2023/01/31 19:52:40;;;;;;;3.13;0.88;;;;;;;20.95;33.15;102197.78;16118872;19;129858;-53
2023/01/31 19:58:02;;;;;;;4.57;1.00;;;;;;;21.03;33.01;102193.84;16124233;19;129435;-54
2023/01/31 20:03:23;;;;;;;7.93;1.10;;;;;;;20.99;32.99;102187.03;16119829;19;131446;-49
2023/01/31 20:08:49;;;;;;;3.00;0.90;;;;;;;20.90;33.07;102181.78;16122962;19;129913;-52
2023/01/31 20:14:11;;;;;;;3.88;0.90;;;;;;;20.80;33.16;102175.88;16124695;19;130300;-47
2023/01/31 20:19:33;;;;;;;4.15;0.90;;;;;;;20.69;33.19;102190.50;16124809;19;130025;-54
2023/01/31 20:24:55;;;;;;;3.50;0.90;;;;;;;20.56;33.53;102181.22;16115578;19;130050;-51
2023/01/31 20:30:19;;;;;;;4.40;1.20;;;;;;;20.45;33.47;102180.06;16115509;19;129860;-56
2023/01/31 20:35:42;;;;;;;2.67;0.73;;;;;;;20.35;33.78;102189.97;16116381;19;129543;-51
2023/01/31 20:41:06;;;;;;;4.15;0.80;;;;;;;20.20;33.54;102193.13;16113628;19;130377;-50
2023/01/31 20:46:27;;;;;;;8.45;1.10;;;;;;;20.10;34.06;102188.06;16113559;19;129395;-50
2023/01/31 20:51:49;;;;;;;3.90;1.20;;;;;;;20.03;34.18;102182.53;16110641;19;129881;-48
2023/01/31 20:57:11;;;;;;;5.45;0.98;;;;;;;19.99;34.17;102193.25;16110264;19;130738;-49
2023/01/31 21:02:33;;;;;;;2.50;0.70;;;;;;;19.99;33.79;102184.94;16108429;19;130517;-48
2023/01/31 21:07:55;;;;;;;2.45;1.08;;;;;;;20.00;33.90;102183.00;16117620;19;131427;-52
2023/01/31 21:13:17;;;;;;;4.72;1.00;;;;;;;19.97;34.15;102170.38;16126782;19;130742;-49
2023/01/31 21:18:42;;;;;;;10.40;1.27;;;;;;;19.88;34.15;102157.84;16123561;19;130795;-44
2023/01/31 21:24:04;;;;;;;18.65;1.90;;;;;;;19.80;34.28;102163.69;16124024;19;130330;-48
2023/01/31 21:29:26;;;;;;;16.65;2.13;;;;;;;19.74;34.71;102156.25;16124591;19;131004;-45
2023/01/31 21:34:48;;;;;;;13.68;1.70;;;;;;;19.73;35.03;102157.31;16126569;19;130465;-48
2023/01/31 21:40:10;;;;;;;16.23;1.88;;;;;;;19.65;34.84;102142.63;16125097;19;132778;-47
2023/01/31 21:45:38;;;;;;;26.38;2.30;;;;;;;19.58;35.51;102152.06;16124406;19;129989;-48
2023/01/31 21:51:10;;;;;;;24.00;2.13;;;;;;;19.51;35.25;102147.41;16125490;19;129287;-48
2023/01/31 21:56:32;;;;;;;22.30;2.25;;;;;;;19.41;35.32;102140.66;16123937;19;129484;-49
2023/01/31 22:01:54;;;;;;;35.75;3.45;;;;;;;19.36;35.88;102133.81;16124794;19;130637;-47
2023/01/31 22:07:15;;;;;;;29.55;2.75;;;;;;;19.30;35.86;102117.22;16123651;19;131016;-49
2023/01/31 22:12:37;;;;;;;26.35;2.92;;;;;;;19.19;36.00;102121.53;16120671;19;130128;-48
2023/01/31 22:17:59;;;;;;;27.65;3.03;;;;;;;19.11;35.61;102118.97;16118444;19;129692;-51
2023/01/31 22:23:20;;;;;;;20.80;2.13;;;;;;;19.04;35.69;102114.34;16121014;19;130286;-49
2023/01/31 22:28:43;;;;;;;21.50;2.03;;;;;;;18.97;35.83;102118.19;16121095;19;131262;-45
2023/01/31 22:34:06;;;;;;;19.05;2.63;;;;;;;18.90;36.06;102112.69;16123101;19;129480;-49
2023/01/31 22:39:27;;;;;;;11.65;1.92;;;;;;;18.85;35.77;102121.66;16125313;19;129752;-47
2023/01/31 22:44:51;;;;;;;13.13;1.70;;;;;;;18.77;35.84;102114.44;16124326;19;131106;-46
2023/01/31 22:50:12;;;;;;;10.05;1.45;;;;;;;18.71;36.03;102114.44;16120088;19;130661;-51
2023/01/31 22:55:38;;;;;;;14.77;1.90;;;;;;;18.65;35.81;102107.00;16119938;19;129797;-46
2023/01/31 23:01:00;;;;;;;6.43;1.42;;;;;;;18.57;36.09;102111.72;16117985;19;129460;-49
2023/01/31 23:06:22;;;;;;;11.35;2.03;;;;;;;18.53;35.73;102129.00;16117787;19;129487;-46
2023/01/31 23:11:44;;;;;;;9.13;2.10;;;;;;;18.48;35.82;102124.09;16121275;19;129435;-47
2023/01/31 23:22:54;;;;;;;7.35;1.17;;;;;;;18.38;36.07;102118.97;16120634;19;129006;-49
2023/01/31 23:28:16;;;;;;;8.20;1.20;;;;;;;18.34;35.83;102116.84;16117638;19;129688;-46
2023/01/31 23:33:37;;;;;;;7.72;1.30;;;;;;;18.28;35.55;102116.63;16116222;19;129946;-49
2023/01/31 23:38:59;;;;;;;7.55;1.30;;;;;;;18.25;35.59;102116.22;16119580;19;129459;-50
2023/01/31 23:44:21;;;;;;;5.68;0.90;;;;;;;18.21;35.77;102112.19;16120567;19;129438;-46
2023/01/31 23:49:43;;;;;;;2.42;0.88;;;;;;;18.19;35.82;102119.84;16120015;19;129105;-49
2023/01/31 23:55:05;;;;;;;5.68;0.88;;;;;;;18.14;35.59;102104.72;16120582;19;131115;-49
